Time;durP1;ratioP1;P1;durP2;ratioP2;P2;SDS_P1;SDS_P2;PMS_P1;PMS_P2;Temp;Humidity;BMP_temperature;BMP_pressure;BME280_temperature;BME280_humidity;BME280_pressure;Samples;Min_cycle;Max_cycle;Signal;HPM_P1;HPM_P2
2022/09/08 00:01:31;;;;;;;24.75;18.38;;;19.10;81.60;;;;;;5055348;28;20021;-39
2022/09/08 00:03:57;;;;;;;24.80;16.88;;;19.10;81.80;;;;;;5055587;28;20036;-42
2022/09/08 00:06:23;;;;;;;23.20;17.10;;;19.00;82.10;;;;;;5054872;28;20036;-38
2022/09/08 00:08:51;;;;;;;27.35;19.75;;;19.00;82.20;;;;;;5055185;28;20025;-38
2022/09/08 00:11:20;;;;;;;23.80;19.67;;;19.10;82.00;;;;;;5054853;28;20044;-38
2022/09/08 00:13:47;;;;;;;30.27;19.52;;;19.00;82.10;;;;;;5055116;28;20017;-38
2022/09/08 00:16:18;;;;;;;30.25;21.48;;;18.90;82.70;;;;;;5053785;28;20068;-39
2022/09/08 00:18:44;;;;;;;27.08;19.38;;;18.80;82.60;;;;;;5054639;28;20021;-39
2022/09/08 00:21:10;;;;;;;24.52;19.52;;;18.80;82.90;;;;;;5054600;28;20047;-39
2022/09/08 00:23:36;;;;;;;25.58;19.52;;;18.80;83.10;;;;;;5054942;28;20025;-40
2022/09/08 00:26:02;;;;;;;27.63;19.92;;;18.80;83.10;;;;;;5055081;28;20029;-39
2022/09/08 00:28:28;;;;;;;24.38;20.42;;;18.70;83.20;;;;;;5054575;28;20082;-39
2022/09/08 00:30:57;;;;;;;26.52;21.10;;;18.70;83.30;;;;;;5053140;28;20025;-38
2022/09/08 00:33:23;;;;;;;25.77;19.35;;;18.70;83.50;;;;;;5054338;28;20071;-38
2022/09/08 00:35:51;;;;;;;29.40;21.08;;;18.60;83.70;;;;;;5054415;28;20362;-38
2022/09/08 00:38:19;;;;;;;23.40;19.40;;;18.60;83.70;;;;;;5054476;28;20035;-39
2022/09/08 00:40:45;;;;;;;28.52;19.17;;;18.60;83.90;;;;;;5053105;28;20094;-38
2022/09/08 00:43:32;;;;;;;25.08;20.70;;;18.60;83.70;;;;;;5054184;28;20489;-38
2022/09/08 00:46:14;;;;;;;25.27;19.92;;;18.60;83.80;;;;;;5054221;28;20036;-39
2022/09/08 00:48:46;;;;;;;27.17;19.80;;;18.70;83.80;;;;;;5054119;28;20032;-39
2022/09/08 00:51:16;;;;;;;26.05;19.85;;;18.60;83.70;;;;;;5054345;28;20025;-38
2022/09/08 00:53:42;;;;;;;28.80;21.55;;;18.70;83.70;;;;;;5054773;28;20021;-39
2022/09/08 00:56:08;;;;;;;26.38;20.50;;;18.80;83.50;;;;;;5054290;28;20033;-38
2022/09/08 00:58:38;;;;;;;27.63;20.23;;;18.70;83.40;;;;;;5054097;28;20465;-38
2022/09/08 01:01:05;;;;;;;26.05;21.50;;;18.70;83.60;;;;;;5053356;28;20146;-38
2022/09/08 01:03:31;;;;;;;28.08;22.00;;;18.70;83.60;;;;;;5054501;28;20407;-38
2022/09/08 01:06:14;;;;;;;32.92;22.85;;;18.70;83.70;;;;;;5054105;28;20025;-39
2022/09/08 01:14:55;;;;;;;26.92;22.67;;;18.60;84.40;;;;;;5053985;28;20534;-38
2022/09/08 01:17:27;;;;;;;30.90;24.02;;;18.60;84.80;;;;;;5053906;28;20078;-39
2022/09/08 01:19:54;;;;;;;29.98;23.48;;;18.70;84.60;;;;;;5053745;28;20033;-39
2022/09/08 01:22:20;;;;;;;34.67;24.73;;;18.60;84.70;;;;;;5053374;28;20099;-39
2022/09/08 01:25:04;;;;;;;30.10;21.75;;;18.60;84.50;;;;;;5051904;28;20128;-38
2022/09/08 01:27:32;;;;;;;31.35;23.20;;;18.70;84.30;;;;;;5053168;28;20504;-38
2022/09/08 01:30:05;;;;;;;30.73;22.02;;;18.80;83.90;;;;;;5053228;28;20017;-38
2022/09/08 01:32:33;;;;;;;27.95;22.17;;;18.80;83.80;;;;;;5052728;28;20036;-38
2022/09/08 01:35:00;;;;;;;27.73;22.58;;;18.80;83.50;;;;;;5051779;28;20033;-37
2022/09/08 01:37:25;;;;;;;26.80;21.58;;;18.80;83.60;;;;;;5053644;28;20032;-39
2022/09/08 01:39:51;;;;;;;29.23;22.85;;;18.80;83.90;;;;;;5053160;28;20029;-39
2022/09/08 01:42:17;;;;;;;32.00;23.40;;;18.70;84.20;;;;;;5053502;28;20025;-40
2022/09/08 01:44:45;;;;;;;32.08;24.60;;;18.50;84.70;;;;;;5053588;28;20070;-37
2022/09/08 01:47:11;;;;;;;34.25;24.63;;;18.40;85.90;;;;;;5053379;28;20045;-39
2022/09/08 01:49:37;;;;;;;31.38;24.98;;;18.30;85.80;;;;;;5051816;28;20440;-38
2022/09/08 01:52:03;;;;;;;29.88;24.92;;;18.40;86.40;;;;;;5053060;28;20381;-39
2022/09/08 01:54:29;;;;;;;37.55;25.33;;;18.40;86.20;;;;;;5053274;28;20127;-39
2022/09/08 01:56:56;;;;;;;34.92;23.98;;;18.40;86.20;;;;;;5051580;28;20031;-38
2022/09/08 01:59:21;;;;;;;30.42;24.73;;;18.40;86.00;;;;;;5052966;28;20057;-39
2022/09/08 02:01:48;;;;;;;32.15;23.65;;;18.40;86.20;;;;;;5052859;28;20093;-38
2022/09/08 02:04:13;;;;;;;33.85;25.30;;;18.50;86.00;;;;;;5034968;28;20025;-38
2022/09/08 02:06:39;;;;;;;27.45;23.77;;;18.50;85.90;;;;;;5052876;28;20025;-38
2022/09/08 02:09:05;;;;;;;30.00;22.63;;;18.50;85.50;;;;;;5052957;28;20029;-38
2022/09/08 02:11:31;;;;;;;28.70;23.90;;;18.50;85.60;;;;;;5051617;28;20346;-38
2022/09/08 02:13:57;;;;;;;30.25;23.23;;;18.60;85.70;;;;;;5053249;28;20040;-38
2022/09/08 02:16:23;;;;;;;36.92;22.55;;;18.50;85.60;;;;;;5052630;28;20311;-38
2022/09/08 02:18:53;;;;;;;29.23;22.85;;;18.50;85.70;;;;;;5052727;28;20181;-38
2022/09/08 02:21:19;;;;;;;30.75;22.38;;;18.50;85.80;;;;;;5052153;28;20049;-39
2022/09/08 02:23:48;;;;;;;28.50;21.33;;;18.50;86.00;;;;;;5052746;28;20021;-38
2022/09/08 02:26:24;;;;;;;23.98;20.42;;;18.50;86.20;;;;;;5052843;28;20028;-39
2022/09/08 02:28:53;;;;;;;23.27;19.90;;;18.50;86.00;;;;;;5052566;28;20148;-41
2022/09/08 02:31:19;;;;;;;27.48;20.05;;;18.40;85.70;;;;;;5052770;28;20474;-39
2022/09/08 02:33:45;;;;;;;24.42;18.85;;;18.40;85.70;;;;;;5052486;28;20021;-38
2022/09/08 02:36:11;;;;;;;23.13;18.75;;;18.30;85.90;;;;;;5052447;28;20025;-45
2022/09/08 02:38:37;;;;;;;26.60;17.33;;;18.30;86.00;;;;;;5052336;28;20025;-40
2022/09/08 02:41:03;;;;;;;26.17;20.67;;;18.30;86.20;;;;;;5052450;28;20473;-39
2022/09/08 02:43:29;;;;;;;24.92;18.67;;;18.40;86.40;;;;;;5053813;28;20032;-39
2022/09/08 02:45:55;;;;;;;25.35;19.45;;;18.50;85.80;;;;;;5056944;28;20176;-38
2022/09/08 02:48:21;;;;;;;21.20;15.85;;;18.50;85.80;;;;;;5055080;28;20489;-39
2022/09/08 02:50:47;;;;;;;19.13;16.63;;;18.60;85.50;;;;;;5056529;28;20108;-38
2022/09/08 02:53:13;;;;;;;17.40;14.98;;;18.60;85.60;;;;;;5056501;28;20047;-39
2022/09/08 02:55:40;;;;;;;15.90;14.15;;;18.60;85.30;;;;;;5056193;28;20033;-38
2022/09/08 02:58:07;;;;;;;16.63;14.18;;;18.60;85.00;;;;;;5056409;28;20029;-39
2022/09/08 03:00:34;;;;;;;18.90;14.00;;;18.60;85.00;;;;;;5055988;28;20496;-38
2022/09/08 03:03:00;;;;;;;17.08;13.85;;;18.50;84.80;;;;;;5054614;28;20139;-38
2022/09/08 03:05:26;;;;;;;15.85;13.05;;;18.50;84.90;;;;;;5056431;28;20380;-39
2022/09/08 03:07:52;;;;;;;18.35;13.40;;;18.50;84.80;;;;;;5056396;28;20021;-38
2022/09/08 03:10:23;;;;;;;14.15;12.65;;;18.50;84.90;;;;;;5056035;28;20025;-39
2022/09/08 03:12:51;;;;;;;13.68;10.88;;;18.50;84.80;;;;;;5056445;28;20032;-38
2022/09/08 03:15:17;;;;;;;13.73;11.88;;;18.50;84.60;;;;;;5055971;28;20558;-38
2022/09/08 03:17:42;;;;;;;11.40;10.20;;;18.60;84.60;;;;;;5056082;28;20045;-37
2022/09/08 03:20:09;;;;;;;15.23;10.80;;;18.60;84.20;;;;;;5055855;28;20025;-38
2022/09/08 03:22:34;;;;;;;14.60;9.75;;;18.70;84.20;;;;;;5055543;28;20052;-38
2022/09/08 03:25:03;;;;;;;15.52;10.25;;;18.70;83.70;;;;;;5055933;28;20021;-39
2022/09/08 03:27:28;;;;;;;12.52;7.82;;;18.70;83.50;;;;;;5056074;28;20071;-37
2022/09/08 03:29:54;;;;;;;12.95;7.75;;;18.70;83.30;;;;;;5055707;28;20020;-38
2022/09/08 03:32:20;;;;;;;9.70;6.70;;;18.60;83.20;;;;;;5055594;28;20036;-38
2022/09/08 03:34:46;;;;;;;9.90;7.43;;;18.70;82.90;;;;;;5055433;28;20033;-38
2022/09/08 03:37:12;;;;;;;9.15;6.50;;;18.70;82.80;;;;;;5055462;28;20111;-38
2022/09/08 03:39:38;;;;;;;8.57;6.70;;;18.70;82.70;;;;;;5055406;28;20021;-38
2022/09/08 03:42:05;;;;;;;8.55;5.72;;;18.80;82.70;;;;;;5054040;28;20052;-38
2022/09/08 03:44:32;;;;;;;9.65;6.35;;;18.80;82.30;;;;;;5055486;28;20025;-38
2022/09/08 03:46:58;;;;;;;7.00;6.30;;;18.80;82.00;;;;;;5055421;28;20152;-38
2022/09/08 03:49:24;;;;;;;8.45;5.97;;;18.80;81.80;;;;;;5055387;28;20067;-38
2022/09/08 03:51:50;;;;;;;6.75;4.35;;;19.00;80.90;;;;;;5055300;28;20108;-38
2022/09/08 03:56:59;;;;;;;4.50;3.17;;;19.10;79.30;;;;;;5055510;28;20098;-38
2022/09/08 03:59:25;;;;;;;4.88;3.63;;;19.20;78.30;;;;;;5055480;28;20447;-38
2022/09/08 04:01:53;;;;;;;3.65;2.75;;;19.30;77.10;;;;;;5055227;28;20118;-38
2022/09/08 04:04:21;;;;;;;2.95;2.50;;;19.30;76.90;;;;;;5055073;28;20036;-38
2022/09/08 04:06:47;;;;;;;5.20;2.90;;;19.30;77.10;;;;;;5054004;28;20051;-38
2022/09/08 04:09:13;;;;;;;3.63;2.38;;;19.30;76.30;;;;;;5054964;28;20021;-38
2022/09/08 04:11:38;;;;;;;4.00;2.25;;;19.30;76.40;;;;;;5055109;28;20078;-39
2022/09/08 04:14:04;;;;;;;4.68;2.80;;;19.30;76.50;;;;;;5053767;28;20029;-38
2022/09/08 04:16:30;;;;;;;4.25;2.42;;;19.30;76.80;;;;;;5054905;28;20025;-39
2022/09/08 04:18:55;;;;;;;4.07;2.95;;;19.10;77.00;;;;;;5053679;28;20025;-38
2022/09/08 04:21:21;;;;;;;4.38;2.40;;;19.10;76.90;;;;;;5054667;28;20044;-38
2022/09/08 04:23:47;;;;;;;3.45;2.50;;;19.10;77.10;;;;;;5053518;28;20536;-39
2022/09/08 04:26:13;;;;;;;3.90;2.25;;;19.20;76.80;;;;;;5054659;28;20070;-39
2022/09/08 04:28:40;;;;;;;3.90;2.17;;;19.20;76.60;;;;;;5054724;28;20504;-39
2022/09/08 04:31:14;;;;;;;4.55;2.63;;;19.20;76.60;;;;;;5053165;28;20029;-38
2022/09/08 04:33:40;;;;;;;2.67;2.03;;;19.20;76.60;;;;;;5054649;28;20036;-38
2022/09/08 04:36:14;;;;;;;3.40;2.15;;;19.20;76.50;;;;;;5054740;28;20406;-38
2022/09/08 04:38:40;;;;;;;5.80;2.10;;;19.10;76.70;;;;;;5054589;28;20135;-38
2022/09/08 04:41:08;;;;;;;3.78;2.17;;;19.10;76.70;;;;;;5054495;28;20040;-39
2022/09/08 04:43:35;;;;;;;3.05;2.13;;;19.10;76.80;;;;;;5054422;28;20045;-37
2022/09/08 04:46:06;;;;;;;2.88;2.33;;;19.10;76.90;;;;;;5054377;28;20031;-39
2022/09/08 04:48:32;;;;;;;3.95;1.80;;;19.10;76.90;;;;;;5054209;28;20021;-38
2022/09/08 04:50:58;;;;;;;3.80;1.92;;;19.10;77.10;;;;;;5054380;28;20021;-38
2022/09/08 04:53:26;;;;;;;4.32;2.13;;;19.10;77.30;;;;;;5054041;28;20049;-38
2022/09/08 04:55:52;;;;;;;5.25;2.60;;;19.00;77.50;;;;;;5053753;28;20100;-38
2022/09/08 04:58:18;;;;;;;4.15;3.05;;;19.00;78.20;;;;;;5053896;28;20025;-38
2022/09/08 05:00:44;;;;;;;3.40;1.55;;;19.00;78.20;;;;;;5054290;28;20031;-38
2022/09/08 05:03:10;;;;;;;3.15;1.48;;;19.00;78.20;;;;;;5053726;28;20029;-38
2022/09/08 05:05:36;;;;;;;3.10;1.83;;;18.90;78.90;;;;;;5053498;28;20032;-38
2022/09/08 18:18:31;;;;;;;6.43;1.60;;;18.80;73.10;;;;;;5070620;28;20452;-49
2022/09/08 18:21:13;;;;;;;6.32;2.35;;;18.70;73.30;;;;;;5070539;28;20370;-50
2022/09/08 18:23:39;;;;;;;6.03;1.70;;;18.60;73.30;;;;;;5070002;28;20058;-49
2022/09/08 18:26:23;;;;;;;4.40;1.40;;;18.60;72.80;;;;;;5070059;28;20021;-46
2022/09/08 18:29:07;;;;;;;2.13;1.30;;;18.70;73.20;;;;;;5070235;28;20104;-49
2022/09/08 18:31:56;;;;;;;1.90;1.10;;;18.70;72.00;;;;;;5070515;28;20028;-48
2022/09/08 18:34:36;;;;;;;2.25;1.05;;;18.70;72.00;;;;;;5070568;28;20464;-48
2022/09/08 18:37:21;;;;;;;6.13;1.63;;;18.60;71.60;;;;;;5068517;28;20025;-50
2022/09/08 18:39:58;;;;;;;2.13;0.88;;;18.50;71.90;;;;;;5069786;28;20107;-49
2022/09/08 18:42:30;;;;;;;6.72;1.08;;;18.40;72.20;;;;;;5068962;28;20193;-50
2022/09/08 18:45:03;;;;;;;2.25;0.90;;;18.30;72.50;;;;;;5069905;28;20043;-48
2022/09/08 18:47:47;;;;;;;3.08;0.82;;;18.20;72.90;;;;;;5068994;28;20109;-47
2022/09/08 18:50:13;;;;;;;2.80;0.93;;;18.10;73.00;;;;;;5068058;28;20021;-48
2022/09/08 18:53:10;;;;;;;4.47;0.88;;;18.10;73.30;;;;;;5068128;28;20089;-40
2022/09/08 18:55:39;;;;;;;2.65;1.40;;;18.00;73.60;;;;;;5058056;28;20473;-39
2022/09/08 18:58:07;;;;;;;1.98;1.23;;;17.90;73.70;;;;;;5068972;28;20028;-41
2022/09/08 19:00:54;;;;;;;4.75;1.42;;;17.80;73.90;;;;;;5068958;28;20024;-38
2022/09/08 19:03:23;;;;;;;3.33;1.33;;;17.80;73.80;;;;;;5069206;28;20028;-38
2022/09/08 19:06:09;;;;;;;2.20;1.20;;;17.80;74.00;;;;;;5068723;28;20021;-40
2022/09/08 19:08:56;;;;;;;1.67;1.10;;;17.70;74.00;;;;;;5067838;28;20020;-38
2022/09/08 19:11:35;;;;;;;1.80;1.35;;;17.60;74.70;;;;;;5069090;28;20334;-39
2022/09/08 19:14:07;;;;;;;1.97;1.10;;;17.60;74.80;;;;;;5069366;28;20374;-39
2022/09/08 19:16:52;;;;;;;1.98;1.10;;;17.60;75.30;;;;;;5068908;28;20044;-43
2022/09/08 19:19:25;;;;;;;1.30;0.85;;;17.70;75.10;;;;;;5067962;28;20498;-48
2022/09/08 19:21:52;;;;;;;6.82;1.00;;;17.60;75.00;;;;;;5068499;28;20059;-47
2022/09/08 19:24:25;;;;;;;2.05;0.95;;;17.60;75.10;;;;;;5068279;28;20017;-46
2022/09/08 19:27:04;;;;;;;4.13;1.00;;;17.60;75.00;;;;;;5068750;28;20520;-47
2022/09/08 19:29:41;;;;;;;1.52;1.00;;;17.60;75.30;;;;;;5056391;28;20113;-48
2022/09/08 19:32:13;;;;;;;2.45;1.27;;;17.40;75.90;;;;;;5055299;28;20083;-46
2022/09/08 19:34:51;;;;;;;3.80;1.17;;;17.40;76.70;;;;;;5055320;28;20440;-48
2022/09/08 19:37:29;;;;;;;2.97;2.08;;;17.30;77.20;;;;;;5054123;28;20021;-48
2022/09/08 19:40:04;;;;;;;3.13;0.95;;;17.30;77.60;;;;;;5055453;28;20075;-51
2022/09/08 19:42:52;;;;;;;1.90;1.15;;;17.20;78.50;;;;;;5055835;28;20021;-47
2022/09/08 19:45:33;;;;;;;2.13;1.30;;;17.20;79.10;;;;;;5055195;28;20028;-48
2022/09/08 19:48:25;;;;;;;6.20;1.05;;;17.10;79.40;;;;;;5055133;28;20480;-47
2022/09/08 19:50:54;;;;;;;3.58;1.00;;;17.10;79.90;;;;;;5054685;28;20040;-46
2022/09/08 19:53:31;;;;;;;2.33;1.10;;;16.90;80.70;;;;;;5054621;28;20025;-47
2022/09/08 19:56:19;;;;;;;3.80;1.48;;;16.90;81.00;;;;;;5054403;28;20036;-47
2022/09/08 19:58:46;;;;;;;5.85;1.98;;;16.90;81.20;;;;;;5054768;28;20018;-49
2022/09/08 20:01:12;;;;;;;2.45;1.48;;;17.00;81.30;;;;;;5054436;28;20032;-47
2022/09/08 20:04:12;;;;;;;3.92;1.63;;;17.10;81.30;;;;;;5054431;28;20021;-48
2022/09/08 20:06:40;;;;;;;2.58;2.00;;;17.10;81.80;;;;;;5042874;28;20124;-48
2022/09/08 20:09:46;;;;;;;3.85;1.65;;;17.10;81.90;;;;;;5054794;28;20116;-48
2022/09/08 20:12:19;;;;;;;2.45;1.25;;;17.10;81.70;;;;;;5054015;28;20060;-39
2022/09/08 20:15:23;;;;;;;4.18;2.17;;;17.00;82.00;;;;;;5054425;28;20033;-39
2022/09/08 20:18:06;;;;;;;2.92;1.50;;;17.10;81.90;;;;;;5054359;28;20406;-38
2022/09/08 20:20:35;;;;;;;2.15;1.45;;;17.20;81.60;;;;;;5054390;28;20025;-39
2022/09/08 20:23:19;;;;;;;6.35;2.40;;;17.20;81.80;;;;;;5054365;28;20029;-45
2022/09/08 20:26:15;;;;;;;2.05;1.27;;;17.30;81.80;;;;;;5054537;28;20522;-40
2022/09/08 20:28:55;;;;;;;2.40;1.50;;;17.30;81.60;;;;;;5054676;28;20025;-40
2022/09/08 20:31:27;;;;;;;2.80;1.45;;;17.30;81.40;;;;;;5054084;28;20032;-39
2022/09/08 20:34:21;;;;;;;1.08;0.93;;;17.30;81.60;;;;;;5054342;28;20021;-39
2022/09/08 20:37:12;;;;;;;1.98;1.42;;;17.30;81.60;;;;;;5054084;28;20055;-39
2022/09/08 20:39:56;;;;;;;4.57;1.55;;;17.20;81.60;;;;;;5052492;28;20036;-40
2022/09/08 20:42:31;;;;;;;5.65;1.50;;;17.20;81.80;;;;;;5054159;28;20025;-38
2022/09/08 20:45:06;;;;;;;4.65;1.60;;;17.30;81.70;;;;;;5054126;28;20094;-40
2022/09/08 20:47:38;;;;;;;5.10;1.85;;;17.30;81.30;;;;;;5053865;28;20036;-38
2022/09/08 20:50:19;;;;;;;4.78;1.95;;;17.30;81.50;;;;;;5053728;28;20445;-38
2022/09/08 20:53:05;;;;;;;3.55;1.10;;;17.30;81.40;;;;;;5053643;28;20025;-38
2022/09/08 20:55:33;;;;;;;4.55;1.75;;;17.30;81.30;;;;;;5053608;28;20029;-38
2022/09/08 20:58:01;;;;;;;3.38;1.20;;;17.30;81.30;;;;;;5051914;28;20084;-37
2022/09/08 21:00:34;;;;;;;3.55;1.75;;;17.30;81.20;;;;;;5053374;28;20032;-38
2022/09/08 21:03:01;;;;;;;3.85;1.60;;;17.30;81.30;;;;;;5053483;28;20473;-38
2022/09/08 21:05:36;;;;;;;2.15;1.20;;;17.20;81.60;;;;;;5053652;28;20113;-38
2022/09/08 21:08:19;;;;;;;5.28;1.63;;;17.30;81.30;;;;;;5052245;28;20108;-38
2022/09/08 21:11:13;;;;;;;5.53;1.73;;;17.30;81.10;;;;;;5054211;28;20420;-38
2022/09/08 21:13:56;;;;;;;6.60;1.75;;;17.30;80.80;;;;;;5053643;28;20025;-38
2022/09/08 21:16:28;;;;;;;10.75;1.75;;;17.30;80.40;;;;;;5053111;28;20041;-38
2022/09/08 21:19:13;;;;;;;5.05;1.95;;;17.30;80.10;;;;;;5053249;28;20358;-39
2022/09/08 21:21:43;;;;;;;2.97;1.33;;;17.30;80.40;;;;;;5053193;28;20413;-39
2022/09/08 21:24:14;;;;;;;4.45;1.35;;;17.30;80.30;;;;;;5053521;28;20040;-38
2022/09/08 21:26:58;;;;;;;1.92;1.30;;;17.30;80.30;;;;;;5053188;28;20391;-37
2022/09/08 21:30:00;;;;;;;12.88;1.77;;;17.30;80.30;;;;;;5053334;28;20404;-40
2022/09/08 21:33:03;;;;;;;6.93;1.70;;;17.30;79.80;;;;;;5036562;28;20087;-38
2022/09/08 21:35:32;;;;;;;15.20;2.67;;;17.30;79.60;;;;;;5053153;28;20036;-39
2022/09/08 21:38:19;;;;;;;4.97;1.63;;;17.20;80.20;;;;;;5051531;28;20116;-39
2022/09/08 21:40:49;;;;;;;5.40;2.10;;;17.30;80.20;;;;;;5052776;28;20384;-38
2022/09/08 21:43:18;;;;;;;2.55;1.48;;;17.30;80.10;;;;;;5051911;28;20025;-39
2022/09/08 21:45:49;;;;;;;3.25;1.30;;;17.20;80.00;;;;;;5053171;28;20495;-38
2022/09/08 21:48:19;;;;;;;3.53;1.65;;;17.10;80.30;;;;;;5053034;28;20020;-38
2022/09/08 21:50:59;;;;;;;2.92;1.90;;;17.10;80.60;;;;;;5051970;28;20322;-39
2022/09/08 21:53:50;;;;;;;1.92;1.40;;;17.10;80.30;;;;;;5051537;28;20024;-38
2022/09/08 21:56:26;;;;;;;5.32;1.80;;;17.10;80.40;;;;;;5052821;28;20103;-40
2022/09/08 21:59:01;;;;;;;2.80;1.48;;;17.00;80.30;;;;;;5053058;28;20496;-38
2022/09/08 22:01:35;;;;;;;6.97;1.52;;;17.10;80.50;;;;;;5052739;28;20135;-39
2022/09/08 22:04:12;;;;;;;3.10;1.80;;;17.10;80.30;;;;;;5052173;28;20398;-39
2022/09/08 22:06:38;;;;;;;3.58;1.20;;;17.00;80.20;;;;;;5052307;28;20477;-39
2022/09/08 22:09:20;;;;;;;4.57;1.50;;;17.10;79.80;;;;;;5052193;28;20016;-38
2022/09/08 22:12:15;;;;;;;3.47;1.60;;;17.20;79.80;;;;;;5052677;28;20033;-38
2022/09/08 22:15:16;;;;;;;3.83;1.20;;;17.20;79.50;;;;;;5052613;28;20484;-40
2022/09/08 22:18:16;;;;;;;3.95;1.40;;;17.30;79.30;;;;;;5052185;28;20075;-38
2022/09/08 22:20:56;;;;;;;7.07;1.60;;;17.30;79.30;;;;;;5043437;28;20067;-38
2022/09/08 22:23:27;;;;;;;6.93;1.50;;;17.30;79.40;;;;;;5052899;28;20415;-39
2022/09/08 22:26:10;;;;;;;10.00;1.83;;;17.20;79.60;;;;;;5052708;28;20039;-40
2022/09/08 22:28:42;;;;;;;4.32;1.58;;;17.20;79.80;;;;;;5052587;28;20095;-38
2022/09/08 22:31:26;;;;;;;8.55;2.35;;;17.20;79.80;;;;;;5053710;28;20025;-39
2022/09/08 22:34:09;;;;;;;3.58;1.23;;;17.20;80.10;;;;;;5051273;28;20021;-38
2022/09/08 22:37:16;;;;;;;1.90;1.30;;;17.30;79.70;;;;;;5053414;28;20040;-39
2022/09/08 22:40:15;;;;;;;2.42;1.15;;;17.30;79.70;;;;;;5052013;28;20028;-38
2022/09/08 22:42:53;;;;;;;3.13;1.33;;;17.30;79.30;;;;;;5052903;28;20255;-41
2022/09/08 22:45:22;;;;;;;3.25;1.95;;;17.30;79.10;;;;;;5052425;28;20025;-39
2022/09/08 22:47:55;;;;;;;2.13;1.27;;;17.30;79.40;;;;;;5052124;28;20082;-39
2022/09/08 22:50:40;;;;;;;2.42;1.20;;;17.50;78.20;;;;;;5052071;28;20025;-38
2022/09/08 22:53:23;;;;;;;2.30;0.88;;;17.60;77.90;;;;;;5052396;28;20104;-38
2022/09/08 22:56:00;;;;;;;3.78;0.70;;;17.50;75.50;;;;;;5052462;28;20025;-39
2022/09/08 22:58:38;;;;;;;1.52;0.80;;;17.30;75.30;;;;;;5052394;28;20029;-38
2022/09/08 23:01:27;;;;;;;0.55;0.55;;;17.30;75.50;;;;;;5052082;28;20020;-38
2022/09/08 23:04:01;;;;;;;1.10;0.73;;;17.20;76.00;;;;;;5053767;28;20021;-38
2022/09/08 23:06:29;;;;;;;0.43;0.40;;;17.10;76.20;;;;;;5055775;28;20082;-38
2022/09/08 23:09:09;;;;;;;1.67;1.00;;;17.10;76.50;;;;;;5055860;28;20551;-37
2022/09/08 23:11:38;;;;;;;4.03;0.70;;;17.00;76.50;;;;;;5055574;28;20025;-38
2022/09/08 23:14:06;;;;;;;1.75;0.98;;;16.80;77.20;;;;;;5055653;28;20029;-38
2022/09/08 23:16:44;;;;;;;1.50;0.90;;;16.90;77.40;;;;;;5055213;28;20378;-39
2022/09/08 23:19:12;;;;;;;1.33;0.68;;;16.80;78.60;;;;;;5055509;28;20326;-39
2022/09/08 23:21:43;;;;;;;0.93;0.73;;;16.60;79.50;;;;;;5054003;28;20025;-39
2022/09/08 23:24:40;;;;;;;2.30;0.75;;;16.30;80.70;;;;;;5054049;28;20028;-38
2022/09/08 23:27:14;;;;;;;2.45;0.60;;;16.10;82.00;;;;;;5055238;28;20036;-38
2022/09/08 23:30:00;;;;;;;1.35;0.50;;;15.90;83.50;;;;;;5055122;28;20188;-38
2022/09/08 23:32:31;;;;;;;2.15;0.70;;;15.80;84.90;;;;;;5055251;28;20476;-39
2022/09/08 23:35:20;;;;;;;1.13;0.88;;;15.80;85.10;;;;;;5055153;28;20040;-38
2022/09/08 23:38:07;;;;;;;1.13;0.70;;;15.80;85.40;;;;;;5055898;28;20029;-38
2022/09/08 23:40:37;;;;;;;1.75;0.50;;;15.80;86.00;;;;;;5055285;28;20025;-38
2022/09/08 23:43:10;;;;;;;2.13;0.90;;;15.70;85.90;;;;;;5055126;28;20044;-38
2022/09/08 23:45:41;;;;;;;3.75;0.80;;;15.70;86.10;;;;;;5055030;28;20021;-37
2022/09/08 23:48:14;;;;;;;0.60;0.60;;;15.60;86.50;;;;;;5054911;28;20028;-38
2022/09/08 23:50:41;;;;;;;0.88;0.45;;;15.60;86.60;;;;;;5054951;28;20041;-38
2022/09/08 23:53:13;;;;;;;2.72;0.75;;;15.40;86.80;;;;;;5053934;28;20025;-38
2022/09/08 23:55:48;;;;;;;2.85;1.00;;;15.40;87.40;;;;;;5054685;28;20480;-37
2022/09/08 23:58:16;;;;;;;1.13;0.75;;;15.30;87.60;;;;;;5054869;28;20071;-38
